Time;durP1;ratioP1;P1;durP2;ratioP2;P2;SDS_P1;SDS_P2;PMS_P1;PMS_P2;Temp;Humidity;BMP_temperature;BMP_pressure;BME280_temperature;BME280_humidity;BME280_pressure;Samples;Min_cycle;Max_cycle;Signal;HPM_P1;HPM_P2
2022/03/12 05:00:15;;;;;;;;;;;4.10;62.00;;;;;;6097200;23;20012;-69
2022/03/12 05:02:41;;;;;;;;;;;4.10;62.10;;;;;;5015916;28;20018;-68
2022/03/12 05:05:11;;;;;;;;;;;4.20;62.30;;;;;;5015084;28;20081;-70
2022/03/12 05:07:38;;;;;;;;;;;4.10;62.40;;;;;;5016293;28;20376;-69
2022/03/12 05:10:09;;;;;;;;;;;4.10;62.50;;;;;;5018882;28;20010;-68
2022/03/12 05:12:36;;;;;;;;;;;4.10;62.40;;;;;;5007728;28;20030;-68
2022/03/12 05:15:03;;;;;;;;;;;4.20;62.50;;;;;;4997096;28;20011;-68
2022/03/12 05:17:38;;;;;;;;;;;4.20;62.20;;;;;;4996231;28;20125;-69
2022/03/12 05:20:07;;;;;;;;;;;4.20;62.60;;;;;;4995971;28;20049;-69
2022/03/12 05:22:33;;;;;;;;;;;4.20;62.50;;;;;;4996098;28;20026;-69
2022/03/12 05:25:00;;;;;;;;;;;4.30;62.30;;;;;;4996243;28;20014;-69
2022/03/12 05:27:26;;;;;;;;;;;4.30;62.20;;;;;;4996348;28;20014;-68
2022/03/12 05:29:54;;;;;;;;;;;4.30;62.00;;;;;;4996030;28;20017;-69
2022/03/12 05:32:20;;;;;;;;;;;4.30;61.90;;;;;;4995986;28;20031;-69
2022/03/12 05:34:48;;;;;;;;;;;4.30;61.60;;;;;;4996016;28;20010;-68
2022/03/12 05:37:15;;;;;;;;;;;4.30;61.60;;;;;;4995691;28;20011;-68
2022/03/12 05:39:41;;;;;;;;;;;4.30;61.80;;;;;;4995811;28;20033;-68
2022/03/12 05:42:08;;;;;;;;;;;4.40;62.00;;;;;;4995409;28;20026;-69
2022/03/12 05:44:39;;;;;;;;;;;4.40;61.60;;;;;;4995685;28;20010;-70
2022/03/12 05:47:10;;;;;;;;;;;4.40;61.60;;;;;;4995598;28;20013;-68
2022/03/12 05:49:37;;;;;;;;;;;4.40;61.80;;;;;;4995342;28;20468;-68
2022/03/12 05:52:07;;;;;;;;;;;4.40;61.70;;;;;;4995663;28;20030;-69
2022/03/12 05:54:34;;;;;;;;;;;4.40;61.70;;;;;;4995417;28;20450;-68
2022/03/12 05:57:00;;;;;;;;;;;4.40;61.70;;;;;;4995745;28;20010;-69
2022/03/12 05:59:27;;;;;;;;;;;4.40;61.90;;;;;;4997980;28;20014;-69
2022/03/12 06:01:54;;;;;;;;;;;4.50;62.40;;;;;;5002012;28;20552;-69
2022/03/12 06:04:26;;;;;;;;;;;4.60;62.60;;;;;;5000686;28;20015;-68
2022/03/12 06:06:53;;;;;;;;;;;4.60;62.40;;;;;;4997861;28;20014;-69
2022/03/12 06:09:21;;;;;;;;;;;4.70;62.00;;;;;;4997042;28;20018;-68
2022/03/12 06:11:49;;;;;;;;;;;4.70;62.70;;;;;;4996954;28;20030;-68
2022/03/12 06:14:16;;;;;;;;;;;4.70;61.90;;;;;;4996665;28;20389;-70
2022/03/12 06:16:48;;;;;;;;;;;4.70;62.00;;;;;;4995958;28;20018;-69
2022/03/12 06:19:15;;;;;;;;;;;4.70;61.50;;;;;;4995716;28;20006;-70
2022/03/12 06:21:42;;;;;;;;;;;4.70;61.80;;;;;;4996346;28;20137;-69
2022/03/12 06:24:09;;;;;;;;;;;4.80;62.20;;;;;;4996271;28;20015;-69
2022/03/12 06:26:39;;;;;;;;;;;4.80;61.70;;;;;;4996166;28;20011;-68
2022/03/12 06:29:08;;;;;;;;;;;4.80;61.50;;;;;;4999018;28;20010;-71
2022/03/12 06:31:34;;;;;;;;;;;4.70;61.20;;;;;;5002504;28;20124;-70
2022/03/12 06:34:02;;;;;;;;;;;4.80;61.70;;;;;;4996727;28;20061;-70
2022/03/12 06:36:28;;;;;;;;;;;4.80;61.50;;;;;;4996578;28;20011;-69
2022/03/12 06:38:55;;;;;;;;;;;4.90;61.80;;;;;;4996185;28;20014;-70
2022/03/12 06:41:23;;;;;;;;;;;5.00;61.30;;;;;;4995935;28;20058;-69
2022/03/12 06:43:53;;;;;;;;;;;5.10;62.60;;;;;;4995790;28;20112;-69
2022/03/12 06:46:20;;;;;;;;;;;5.20;60.70;;;;;;4995787;28;20018;-69
2022/03/12 06:48:47;;;;;;;;;;;5.40;60.20;;;;;;4995664;28;20043;-67
2022/03/12 06:51:14;;;;;;;;;;;5.70;59.90;;;;;;4995301;28;20032;-70
2022/03/12 06:53:40;;;;;;;;;;;6.10;59.40;;;;;;4995837;28;20062;-68
2022/03/12 06:56:07;;;;;;;;;;;6.50;58.30;;;;;;4995739;28;20011;-69
2022/03/12 06:58:34;;;;;;;;;;;7.00;57.50;;;;;;4995711;28;20057;-69
2022/03/12 07:01:02;;;;;;;;;;;7.50;56.70;;;;;;4995996;28;20035;-69
2022/03/12 07:03:29;;;;;;;;;;;7.90;56.20;;;;;;4997806;28;20011;-70
2022/03/12 07:05:55;;;;;;;;;;;7.90;55.90;;;;;;4996651;28;20018;-70
2022/03/12 07:08:23;;;;;;;;;;;7.80;56.10;;;;;;4996999;28;20017;-70
2022/03/12 07:10:50;;;;;;;;;;;8.10;56.20;;;;;;5003502;28;20050;-70
2022/03/12 07:13:17;;;;;;;;;;;8.60;55.90;;;;;;5004081;28;20377;-70
2022/03/12 07:15:43;;;;;;;;;;;9.00;55.50;;;;;;4995365;28;20085;-70
2022/03/12 07:18:11;;;;;;;;;;;9.10;54.30;;;;;;4995254;28;20529;-70
2022/03/12 07:20:38;;;;;;;;;;;9.20;55.00;;;;;;4996207;28;20513;-71
2022/03/12 07:23:05;;;;;;;;;;;9.70;54.40;;;;;;5003564;28;20010;-70
2022/03/12 07:25:32;;;;;;;;;;;9.90;52.90;;;;;;5002429;28;20097;-71
2022/03/12 07:28:00;;;;;;;;;;;10.40;51.90;;;;;;4999094;28;20010;-71
2022/03/12 07:30:27;;;;;;;;;;;10.60;51.50;;;;;;4999147;28;20410;-70
2022/03/12 07:32:53;;;;;;;;;;;10.80;50.70;;;;;;4998635;28;20381;-70
2022/03/12 07:35:21;;;;;;;;;;;11.10;51.20;;;;;;4998352;28;20017;-70
2022/03/12 07:37:50;;;;;;;;;;;11.50;50.60;;;;;;4998863;28;20014;-70
2022/03/12 07:40:17;;;;;;;;;;;11.90;49.20;;;;;;4999232;28;20438;-70
2022/03/12 07:42:44;;;;;;;;;;;12.20;49.00;;;;;;4998484;28;20011;-70
2022/03/12 07:45:11;;;;;;;;;;;12.30;48.10;;;;;;4998415;28;20021;-72
2022/03/12 07:47:38;;;;;;;;;;;12.60;55.50;;;;;;5012430;28;20014;-71
2022/03/12 07:50:05;;;;;;;;;;;12.80;47.90;;;;;;5001881;28;20017;-70
2022/03/12 07:52:33;;;;;;;;;;;13.00;46.70;;;;;;4997809;28;20125;-70
2022/03/12 07:55:00;;;;;;;;;;;13.30;46.20;;;;;;4998086;28;20371;-68
2022/03/12 07:57:28;;;;;;;;;;;13.80;57.00;;;;;;4999166;28;20011;-68
2022/03/12 07:59:55;;;;;;;;;;;14.20;49.70;;;;;;4998530;28;20061;-68
2022/03/12 08:02:21;;;;;;;;;;;14.40;50.70;;;;;;4998424;28;20081;-68
2022/03/12 08:04:48;;;;;;;;;;;14.60;46.00;;;;;;4998494;28;20018;-70
2022/03/12 08:07:14;;;;;;;;;;;14.60;44.90;;;;;;4997938;28;20010;-70
2022/03/12 08:09:42;;;;;;;;;;;14.90;45.50;;;;;;4997423;28;20497;-70
2022/03/12 08:12:09;;;;;;;;;;;14.90;44.20;;;;;;4997564;28;20033;-70
2022/03/12 08:14:36;;;;;;;;;;;15.20;44.60;;;;;;4997073;28;20434;-71
2022/03/12 08:17:03;;;;;;;;;;;15.30;43.90;;;;;;4997230;28;20016;-70
2022/03/12 08:19:31;;;;;;;;;;;15.70;43.50;;;;;;4997138;28;20011;-69
2022/03/12 08:21:59;;;;;;;;;;;16.00;45.90;;;;;;4997126;28;20405;-69
2022/03/12 08:24:26;;;;;;;;;;;16.40;43.00;;;;;;4996899;28;20377;-70
2022/03/12 08:26:54;;;;;;;;;;;16.60;41.40;;;;;;4997261;28;20018;-70
2022/03/12 08:29:21;;;;;;;;;;;16.90;42.70;;;;;;4997200;28;20020;-71
2022/03/12 08:31:49;;;;;;;;;;;17.20;41.50;;;;;;4997136;28;20037;-70
2022/03/12 08:34:15;;;;;;;;;;;17.70;41.60;;;;;;4997363;28;20397;-71
2022/03/12 08:36:42;;;;;;;;;;;18.00;40.90;;;;;;4996851;28;20017;-71
2022/03/12 08:39:10;;;;;;;;;;;18.30;40.60;;;;;;4997351;28;20517;-72
2022/03/12 08:41:38;;;;;;;;;;;18.50;40.90;;;;;;4996723;28;20516;-71
2022/03/12 08:44:07;;;;;;;;;;;18.80;40.30;;;;;;4997534;28;20018;-71
2022/03/12 08:46:35;;;;;;;;;;;19.00;40.20;;;;;;4997247;28;20033;-70
2022/03/12 08:49:01;;;;;;;;;;;18.90;39.50;;;;;;4996918;28;20014;-71
2022/03/12 08:51:28;;;;;;;;;;;19.20;38.60;;;;;;4997153;28;20049;-70
2022/03/12 08:53:54;;;;;;;;;;;19.40;39.60;;;;;;4996840;28;20010;-71
2022/03/12 08:56:21;;;;;;;;;;;19.70;38.20;;;;;;4996675;28;20014;-70
2022/03/12 08:58:48;;;;;;;;;;;19.70;39.80;;;;;;4996736;28;20010;-71
2022/03/12 09:01:16;;;;;;;;;;;19.50;40.70;;;;;;4997556;28;20077;-71
2022/03/12 09:03:43;;;;;;;;;;;19.40;41.10;;;;;;5007933;28;20010;-70
2022/03/12 09:06:10;;;;;;;;;;;19.80;39.30;;;;;;5007493;28;20010;-72
2022/03/12 09:08:37;;;;;;;;;;;19.80;38.00;;;;;;5000945;28;20010;-71
2022/03/12 09:11:03;;;;;;;;;;;20.10;38.70;;;;;;5000746;28;20026;-71
2022/03/12 09:13:30;;;;;;;;;;;20.30;38.70;;;;;;4999385;28;20106;-70
2022/03/12 09:15:58;;;;;;;;;;;20.30;38.80;;;;;;4999186;28;20015;-71
2022/03/12 09:18:26;;;;;;;;;;;20.10;39.00;;;;;;4998389;28;20465;-71
2022/03/12 09:20:52;;;;;;;;;;;19.90;38.50;;;;;;4998268;28;20031;-70
2022/03/12 09:23:20;;;;;;;;;;;20.30;38.30;;;;;;4997541;28;20010;-70
2022/03/12 09:25:47;;;;;;;;;;;20.40;38.20;;;;;;5001901;28;20017;-70
2022/03/12 09:28:14;;;;;;;;;;;20.70;38.40;;;;;;5004744;28;20034;-70
2022/03/12 09:30:41;;;;;;;;;;;21.10;37.40;;;;;;5000837;28;20026;-70
2022/03/12 09:33:09;;;;;;;;;;;21.40;37.90;;;;;;4996246;28;20022;-71
2022/03/12 09:35:37;;;;;;;;;;;20.90;36.30;;;;;;4996526;28;20050;-70
2022/03/12 09:38:03;;;;;;;;;;;21.30;36.20;;;;;;4996346;28;20058;-70
2022/03/12 09:40:30;;;;;;;;;;;20.70;36.90;;;;;;5003264;28;20010;-71
2022/03/12 09:42:57;;;;;;;;;;;21.00;36.50;;;;;;5012306;28;20018;-71
2022/03/12 09:45:24;;;;;;;;;;;21.00;36.60;;;;;;5011719;28;20057;-71
2022/03/12 09:47:51;;;;;;;;;;;20.90;36.80;;;;;;5010341;28;20011;-71
2022/03/12 09:50:18;;;;;;;;;;;21.30;37.30;;;;;;5009358;28;20454;-71
2022/03/12 09:52:46;;;;;;;;;;;21.70;36.10;;;;;;5007592;28;20022;-72
2022/03/12 09:55:12;;;;;;;;;;;22.20;36.50;;;;;;4997424;28;20474;-70
2022/03/12 09:57:39;;;;;;;;;;;22.50;36.60;;;;;;4996112;28;20011;-71
2022/03/12 10:00:06;;;;;;;;;;;22.60;35.70;;;;;;4996601;28;20017;-71
2022/03/12 10:02:33;;;;;;;;;;;22.80;36.10;;;;;;4995932;28;20066;-72
2022/03/12 10:04:59;;;;;;;;;;;22.90;35.90;;;;;;4995738;28;20010;-71
2022/03/12 10:07:26;;;;;;;;;;;22.90;36.20;;;;;;4996166;28;20030;-71
2022/03/12 10:09:54;;;;;;;;;;;22.80;36.10;;;;;;4996045;28;20015;-70
2022/03/12 10:12:21;;;;;;;;;;;22.80;37.10;;;;;;4995379;28;20496;-71
2022/03/12 10:14:49;;;;;;;;;;;22.90;36.80;;;;;;4995857;28;20011;-72
2022/03/12 10:17:17;;;;;;;;;;;23.50;36.90;;;;;;4996078;28;20011;-71
2022/03/12 10:19:44;;;;;;;;;;;23.60;35.00;;;;;;4995680;28;20058;-70
2022/03/12 10:22:11;;;;;;;;;;;23.70;35.40;;;;;;5001013;28;20027;-71
2022/03/12 10:24:38;;;;;;;;;;;23.60;36.40;;;;;;5011688;28;20024;-70
2022/03/12 10:27:06;;;;;;;;;;;23.10;38.30;;;;;;4995793;28;20438;-71
2022/03/12 10:29:33;;;;;;;;;;;23.20;37.10;;;;;;4995868;28;20018;-71
2022/03/12 10:32:00;;;;;;;;;;;23.70;35.70;;;;;;4995396;28;20151;-70
2022/03/12 10:34:27;;;;;;;;;;;23.80;36.00;;;;;;4995595;28;20014;-70
2022/03/12 10:36:55;;;;;;;;;;;23.90;35.80;;;;;;4995764;28;20113;-72
2022/03/12 10:39:30;;;;;;;;;;;23.90;35.40;;;;;;4995559;28;20420;-73
2022/03/12 10:42:00;;;;;;;;;;;23.50;35.50;;;;;;4995284;28;20026;-71
2022/03/12 10:44:34;;;;;;;;;;;23.60;37.40;;;;;;4995246;28;20010;-71
2022/03/12 10:47:01;;;;;;;;;;;23.90;37.80;;;;;;4995635;28;20012;-71
2022/03/12 10:49:27;;;;;;;;;;;24.10;36.90;;;;;;4995371;28;20010;-71
2022/03/12 10:51:56;;;;;;;;;;;24.10;36.50;;;;;;4994910;28;20034;-71
2022/03/12 10:54:23;;;;;;;;;;;24.00;37.00;;;;;;4995081;28;20022;-71
2022/03/12 10:56:51;;;;;;;;;;;24.10;36.60;;;;;;4995072;28;20010;-71
2022/03/12 10:59:19;;;;;;;;;;;23.60;37.90;;;;;;4995009;28;20121;-72
2022/03/12 11:01:51;;;;;;;;;;;23.50;38.40;;;;;;4994981;28;20037;-71
2022/03/12 11:04:19;;;;;;;;;;;22.70;39.40;;;;;;4996664;28;20017;-72
2022/03/12 11:06:46;;;;;;;;;;;22.70;39.70;;;;;;4998705;28;20018;-70
2022/03/12 11:09:15;;;;;;;;;;;22.60;40.00;;;;;;4998883;28;20049;-71
2022/03/12 11:11:42;;;;;;;;;;;22.20;41.50;;;;;;5008799;28;20026;-71
2022/03/12 11:14:15;;;;;;;;;;;22.00;41.10;;;;;;5002409;28;20011;-70
2022/03/12 11:16:42;;;;;;;;;;;21.90;41.40;;;;;;4999288;28;20006;-70
2022/03/12 11:19:11;;;;;;;;;;;21.40;43.00;;;;;;4998968;28;20011;-70
2022/03/12 11:21:39;;;;;;;;;;;21.10;44.30;;;;;;4998390;28;20031;-70
2022/03/12 11:24:08;;;;;;;;;;;20.90;43.20;;;;;;4998954;28;20042;-70
2022/03/12 11:26:45;;;;;;;;;;;20.70;43.50;;;;;;4998871;28;20010;-70
2022/03/12 11:29:12;;;;;;;;;;;19.80;44.00;;;;;;4998679;28;20018;-70
2022/03/12 11:31:40;;;;;;;;;;;19.50;46.20;;;;;;4998648;28;20026;-69
2022/03/12 11:34:20;;;;;;;;;;;18.90;47.20;;;;;;4998579;28;20026;-70
2022/03/12 11:36:48;;;;;;;;;;;19.00;45.90;;;;;;4998441;28;20013;-70
2022/03/12 11:39:19;;;;;;;;;;;18.90;46.50;;;;;;4998233;28;20014;-70
2022/03/12 11:42:00;;;;;;;;;;;19.10;47.40;;;;;;4999385;28;20034;-70
2022/03/12 11:44:27;;;;;;;;;;;19.00;47.50;;;;;;5000120;28;20089;-71
2022/03/12 11:46:54;;;;;;;;;;;18.90;48.30;;;;;;4999634;28;20014;-70
2022/03/12 11:49:23;;;;;;;;;;;18.50;48.60;;;;;;4999147;28;20015;-71
2022/03/12 11:51:49;;;;;;;;;;;18.70;48.90;;;;;;4998149;28;20514;-70
2022/03/12 11:54:16;;;;;;;;;;;18.60;48.80;;;;;;4998337;28;20073;-70
2022/03/12 11:56:42;;;;;;;;;;;18.70;48.30;;;;;;4998106;28;20010;-70
2022/03/12 11:59:09;;;;;;;;;;;18.60;47.90;;;;;;4998137;28;20033;-70
2022/03/12 12:01:37;;;;;;;;;;;18.70;48.90;;;;;;4997866;28;20449;-69
2022/03/12 12:04:04;;;;;;;;;;;18.40;48.90;;;;;;4997981;28;20021;-70
2022/03/12 12:06:33;;;;;;;;;;;18.10;51.10;;;;;;4998236;28;20373;-70
2022/03/12 12:09:02;;;;;;;;;;;18.10;50.60;;;;;;4997955;28;20011;-70
2022/03/12 12:11:31;;;;;;;;;;;18.20;50.40;;;;;;5004128;28;20027;-70
2022/03/12 12:13:58;;;;;;;;;;;18.20;51.80;;;;;;5007051;28;20408;-71
2022/03/12 12:16:25;;;;;;;;;;;18.40;51.30;;;;;;5003663;28;20015;-70
2022/03/12 12:18:52;;;;;;;;;;;18.70;52.80;;;;;;5000851;28;20030;-70
2022/03/12 12:21:19;;;;;;;;;;;18.90;50.50;;;;;;5000651;28;20457;-70
2022/03/12 12:23:47;;;;;;;;;;;18.80;49.20;;;;;;4999210;28;20458;-70
2022/03/12 12:26:14;;;;;;;;;;;19.00;51.20;;;;;;4999033;28;20060;-70
2022/03/12 12:28:48;;;;;;;;;;;18.60;50.40;;;;;;4998795;28;20010;-70
2022/03/12 12:31:18;;;;;;;;;;;18.90;50.10;;;;;;4997779;28;20539;-71
2022/03/12 12:33:44;;;;;;;;;;;18.80;50.80;;;;;;4997936;28;20423;-70
2022/03/12 12:36:12;;;;;;;;;;;18.70;50.30;;;;;;5000179;28;20018;-70
2022/03/12 12:38:40;;;;;;;;;;;18.90;52.00;;;;;;5008459;28;20010;-70
2022/03/12 12:41:08;;;;;;;;;;;18.90;52.10;;;;;;5017919;28;20027;-71
2022/03/12 12:43:35;;;;;;;;;;;19.00;52.00;;;;;;5018204;28;20015;-71
2022/03/12 12:46:05;;;;;;;;;;;18.60;51.50;;;;;;5018233;28;20022;-70
2022/03/12 12:48:32;;;;;;;;;;;18.30;50.90;;;;;;5003702;28;20017;-70
2022/03/12 12:51:03;;;;;;;;;;;18.30;51.70;;;;;;4998254;28;20032;-70
2022/03/12 12:53:30;;;;;;;;;;;18.00;50.80;;;;;;4997839;28;20030;-70
2022/03/12 12:56:11;;;;;;;;;;;18.10;51.30;;;;;;4997579;28;20073;-71
2022/03/12 12:58:47;;;;;;;;;;;18.00;51.80;;;;;;4997193;28;20014;-70
2022/03/12 13:01:16;;;;;;;;;;;18.20;51.90;;;;;;4996784;28;20030;-70
2022/03/12 13:03:46;;;;;;;;;;;18.30;51.70;;;;;;4996852;28;20057;-70
2022/03/12 13:06:12;;;;;;;;;;;18.50;51.40;;;;;;4996475;28;20101;-71
2022/03/12 13:08:44;;;;;;;;;;;18.70;51.70;;;;;;4996470;28;20017;-70
2022/03/12 13:11:25;;;;;;;;;;;18.50;51.20;;;;;;4996520;28;20386;-70
2022/03/12 13:13:56;;;;;;;;;;;18.50;52.30;;;;;;4994684;28;20027;-71
2022/03/12 13:16:24;;;;;;;;;;;18.80;51.80;;;;;;4996654;28;20006;-70
2022/03/12 13:18:51;;;;;;;;;;;18.90;50.20;;;;;;4996841;28;20096;-71
2022/03/12 13:21:31;;;;;;;;;;;18.90;51.10;;;;;;4996898;28;20026;-70
2022/03/12 13:23:58;;;;;;;;;;;18.80;52.20;;;;;;4996476;28;20017;-70
2022/03/12 13:26:26;;;;;;;;;;;18.60;52.80;;;;;;4995383;28;20469;-70
2022/03/12 13:28:54;;;;;;;;;;;18.10;52.60;;;;;;4996204;28;20401;-70
2022/03/12 13:31:28;;;;;;;;;;;18.10;53.00;;;;;;4995939;28;20030;-70
2022/03/12 13:33:56;;;;;;;;;;;18.20;53.30;;;;;;4995729;28;20081;-71
2022/03/12 13:36:24;;;;;;;;;;;18.40;52.70;;;;;;4995948;28;20011;-70
2022/03/12 13:38:52;;;;;;;;;;;18.50;52.70;;;;;;4997893;28;20470;-70
2022/03/12 13:41:19;;;;;;;;;;;18.40;54.50;;;;;;4999826;28;20027;-71
2022/03/12 13:43:46;;;;;;;;;;;18.40;52.60;;;;;;4999741;28;20017;-70
2022/03/12 13:46:13;;;;;;;;;;;18.20;52.80;;;;;;4999275;28;20010;-70
2022/03/12 13:48:41;;;;;;;;;;;18.30;52.10;;;;;;5000120;28;19998;-71
2022/03/12 13:51:08;;;;;;;;;;;18.10;53.20;;;;;;5014586;28;20034;-70
2022/03/12 13:53:36;;;;;;;;;;;17.50;53.10;;;;;;5005208;28;20026;-70
2022/03/12 13:56:05;;;;;;;;;;;17.70;54.10;;;;;;4995433;28;20010;-71
2022/03/12 13:58:32;;;;;;;;;;;17.70;53.80;;;;;;4995735;28;20072;-71
2022/03/12 14:01:00;;;;;;;;;;;17.80;53.70;;;;;;4995300;28;20030;-71
2022/03/12 14:03:30;;;;;;;;;;;18.00;55.00;;;;;;4995609;28;20413;-70
2022/03/12 14:05:58;;;;;;;;;;;17.90;52.80;;;;;;4995609;28;20418;-71
2022/03/12 14:08:29;;;;;;;;;;;17.90;54.30;;;;;;4995056;28;20385;-71
2022/03/12 14:10:55;;;;;;;;;;;17.90;54.10;;;;;;4995191;28;20077;-71
2022/03/12 14:13:22;;;;;;;;;;;17.90;53.20;;;;;;4995307;28;20049;-71
2022/03/12 14:15:49;;;;;;;;;;;17.70;53.20;;;;;;4995399;28;20013;-71
2022/03/12 14:18:23;;;;;;;;;;;17.80;53.40;;;;;;4995008;28;20010;-71
2022/03/12 14:20:50;;;;;;;;;;;17.90;53.90;;;;;;4995681;28;20027;-70
2022/03/12 14:23:24;;;;;;;;;;;17.80;53.20;;;;;;4995030;28;20423;-70
2022/03/12 14:25:53;;;;;;;;;;;17.70;53.90;;;;;;4995204;28;20096;-70
2022/03/12 14:28:21;;;;;;;;;;;17.70;53.10;;;;;;4994929;28;20085;-71
2022/03/12 14:30:48;;;;;;;;;;;17.70;54.00;;;;;;4994744;28;20512;-70
2022/03/12 14:33:15;;;;;;;;;;;17.50;53.60;;;;;;4995078;28;20499;-71
2022/03/12 14:35:41;;;;;;;;;;;17.50;53.80;;;;;;4994962;28;20061;-70
2022/03/12 14:38:08;;;;;;;;;;;17.50;53.70;;;;;;4997073;28;20011;-70
2022/03/12 14:40:36;;;;;;;;;;;17.40;53.40;;;;;;4999165;28;20109;-70
2022/03/12 14:43:03;;;;;;;;;;;17.60;54.60;;;;;;4998618;28;20462;-70
2022/03/12 14:45:30;;;;;;;;;;;17.60;53.70;;;;;;4998918;28;20010;-71
2022/03/12 14:47:57;;;;;;;;;;;17.40;53.50;;;;;;4998956;28;20359;-70
2022/03/12 14:50:23;;;;;;;;;;;17.40;53.50;;;;;;4998527;28;20470;-71
2022/03/12 14:52:51;;;;;;;;;;;17.20;54.00;;;;;;4998354;28;20418;-70
2022/03/12 14:55:18;;;;;;;;;;;17.50;56.80;;;;;;4998384;28;20508;-71
2022/03/12 14:57:47;;;;;;;;;;;17.60;55.50;;;;;;4998700;28;20014;-71
2022/03/12 15:00:18;;;;;;;;;;;17.70;56.00;;;;;;4999538;28;20078;-70
2022/03/12 15:02:47;;;;;;;;;;;17.80;55.20;;;;;;5002473;28;20007;-70
2022/03/12 15:05:15;;;;;;;;;;;17.90;55.20;;;;;;5002389;28;20014;-72
2022/03/12 15:07:43;;;;;;;;;;;17.80;55.00;;;;;;4998479;28;20455;-71
2022/03/12 15:10:13;;;;;;;;;;;18.10;54.50;;;;;;4998573;28;20390;-71
2022/03/12 15:12:40;;;;;;;;;;;17.90;53.40;;;;;;4998488;28;20429;-70
2022/03/12 15:15:18;;;;;;;;;;;18.10;53.90;;;;;;4998402;28;20026;-71
2022/03/12 15:17:45;;;;;;;;;;;18.10;53.90;;;;;;4998738;28;20010;-71
2022/03/12 15:20:13;;;;;;;;;;;17.90;53.40;;;;;;4998039;28;20025;-70
2022/03/12 15:22:41;;;;;;;;;;;17.80;52.60;;;;;;4998127;28;20034;-71
2022/03/12 15:25:08;;;;;;;;;;;17.60;52.20;;;;;;4998324;28;20473;-71
2022/03/12 15:27:35;;;;;;;;;;;17.40;53.10;;;;;;4997783;28;20018;-70
2022/03/12 15:30:03;;;;;;;;;;;17.20;53.10;;;;;;4998112;28;20057;-70
2022/03/12 15:32:34;;;;;;;;;;;17.20;53.30;;;;;;5012122;28;20050;-72
2022/03/12 15:35:01;;;;;;;;;;;17.00;53.80;;;;;;5004150;28;20121;-70
2022/03/12 15:37:34;;;;;;;;;;;16.90;54.10;;;;;;4998317;28;20045;-70
2022/03/12 15:40:02;;;;;;;;;;;16.80;54.10;;;;;;5006981;28;20010;-70
2022/03/12 15:42:29;;;;;;;;;;;16.90;54.70;;;;;;5007088;28;20033;-71
2022/03/12 15:44:56;;;;;;;;;;;16.80;55.00;;;;;;5002650;28;20038;-71
2022/03/12 15:47:23;;;;;;;;;;;16.90;54.60;;;;;;5000234;28;20382;-70
2022/03/12 15:49:51;;;;;;;;;;;16.80;54.60;;;;;;4998120;28;20122;-71
2022/03/12 15:52:17;;;;;;;;;;;16.50;54.60;;;;;;4998543;28;20027;-71
2022/03/12 15:54:44;;;;;;;;;;;16.40;55.20;;;;;;4997968;28;20029;-71
2022/03/12 15:57:10;;;;;;;;;;;16.20;54.50;;;;;;4997847;28;20017;-71
2022/03/12 15:59:37;;;;;;;;;;;16.10;54.50;;;;;;4998194;28;20413;-71
2022/03/12 16:02:05;;;;;;;;;;;15.90;54.90;;;;;;4998089;28;20065;-71
2022/03/12 16:04:32;;;;;;;;;;;15.70;55.50;;;;;;4997682;28;20011;-71
2022/03/12 16:07:01;;;;;;;;;;;15.60;55.40;;;;;;4997333;28;20017;-70
2022/03/12 16:09:28;;;;;;;;;;;15.70;55.60;;;;;;4997040;28;20010;-71
2022/03/12 16:11:55;;;;;;;;;;;15.60;55.70;;;;;;4997080;28;20508;-71
2022/03/12 16:14:22;;;;;;;;;;;15.50;55.50;;;;;;4997232;28;20027;-70
2022/03/12 16:16:48;;;;;;;;;;;15.30;56.00;;;;;;4997361;28;20017;-70
2022/03/12 16:19:18;;;;;;;;;;;15.30;56.50;;;;;;4997051;28;20014;-69
2022/03/12 16:21:44;;;;;;;;;;;15.20;55.90;;;;;;4997183;28;20077;-71
2022/03/12 16:24:13;;;;;;;;;;;15.00;56.20;;;;;;4997086;28;20011;-70
2022/03/12 16:26:39;;;;;;;;;;;14.90;56.40;;;;;;4996975;28;20378;-70
2022/03/12 16:29:10;;;;;;;;;;;14.70;56.40;;;;;;4996747;28;20465;-71
2022/03/12 16:31:37;;;;;;;;;;;14.80;56.60;;;;;;4997756;28;20036;-70
2022/03/12 16:34:07;;;;;;;;;;;14.60;56.50;;;;;;4997080;28;20481;-71
2022/03/12 16:36:35;;;;;;;;;;;14.60;56.90;;;;;;4999163;28;20053;-69
2022/03/12 16:39:01;;;;;;;;;;;14.40;56.90;;;;;;5001001;28;20052;-67
2022/03/12 16:41:30;;;;;;;;;;;14.40;57.40;;;;;;4997262;28;20456;-68
2022/03/12 16:43:57;;;;;;;;;;;14.30;57.30;;;;;;4996728;28;20462;-68
2022/03/12 16:46:24;;;;;;;;;;;14.30;59.60;;;;;;4997233;28;20057;-69
2022/03/12 16:48:52;;;;;;;;;;;14.40;61.70;;;;;;4997322;28;20014;-68
2022/03/12 16:51:18;;;;;;;;;;;14.40;59.50;;;;;;4997059;28;20026;-69
2022/03/12 16:53:45;;;;;;;;;;;14.50;57.40;;;;;;4996936;28;20033;-69
2022/03/12 17:14:23;;;;;;;12.57;10.90;;;13.30;55.70;;;;;;5094983;27;20553;-68
2022/03/12 17:16:49;;;;;;;12.50;11.20;;;13.10;57.90;;;;;;5092834;28;20442;-68
2022/03/12 17:19:16;;;;;;;13.40;10.90;;;13.10;59.10;;;;;;5093486;28;20452;-69
2022/03/12 17:21:45;;;;;;;14.47;11.23;;;13.20;59.50;;;;;;5093086;28;20598;-68
2022/03/12 17:24:15;;;;;;;18.37;11.77;;;13.20;59.00;;;;;;5092699;28;20956;-69
2022/03/12 17:26:43;;;;;;;12.37;11.10;;;13.30;57.70;;;;;;5094263;28;20546;-70
2022/03/12 17:29:12;;;;;;;13.33;12.00;;;13.20;58.60;;;;;;5096682;28;20449;-69
2022/03/12 17:31:40;;;;;;;12.43;11.03;;;13.20;59.30;;;;;;5106365;28;20964;-69
2022/03/12 17:34:10;;;;;;;13.13;10.70;;;13.20;60.30;;;;;;5113108;28;20470;-71
2022/03/12 17:36:37;;;;;;;12.67;11.37;;;13.30;60.00;;;;;;5097302;28;20449;-69
2022/03/12 17:39:04;;;;;;;10.37;9.40;;;13.20;58.30;;;;;;5092118;28;20454;-68
2022/03/12 17:41:31;;;;;;;11.00;10.10;;;13.20;60.00;;;;;;5092018;28;20469;-70
2022/03/12 17:43:58;;;;;;;11.47;10.37;;;13.20;57.20;;;;;;5091940;28;20468;-70
2022/03/12 17:46:25;;;;;;;13.53;11.50;;;13.20;56.20;;;;;;5091973;28;20499;-71
2022/03/12 17:48:53;;;;;;;12.90;11.60;;;13.10;55.90;;;;;;5111150;28;20506;-70
2022/03/12 17:51:21;;;;;;;12.90;11.43;;;13.00;56.30;;;;;;5113790;28;20461;-70
2022/03/12 17:53:48;;;;;;;14.73;11.50;;;12.90;56.20;;;;;;5113402;28;20509;-71
2022/03/12 17:56:15;;;;;;;12.77;11.50;;;12.70;56.10;;;;;;5113660;28;20453;-71
2022/03/12 17:58:42;;;;;;;15.67;13.13;;;12.60;56.20;;;;;;5114761;28;20458;-70
2022/03/12 18:01:09;;;;;;;24.40;13.60;;;12.60;56.20;;;;;;5104139;28;20473;-71
2022/03/12 18:03:36;;;;;;;14.20;12.13;;;12.40;56.20;;;;;;5095733;28;20446;-70
2022/03/12 18:06:04;;;;;;;13.33;12.03;;;12.20;56.50;;;;;;5094133;28;20940;-71
2022/03/12 18:08:31;;;;;;;14.40;11.73;;;12.10;56.60;;;;;;5094169;28;20871;-70
2022/03/12 18:11:00;;;;;;;14.70;12.27;;;12.00;56.60;;;;;;5094071;28;20470;-71
2022/03/12 18:13:27;;;;;;;13.70;10.77;;;11.90;56.90;;;;;;5091710;28;20478;-68
2022/03/12 18:15:55;;;;;;;13.93;12.50;;;11.80;57.10;;;;;;5091288;28;20932;-71
2022/03/12 18:18:22;;;;;;;11.73;10.60;;;11.70;57.40;;;;;;5091236;28;20548;-70
2022/03/12 18:20:52;;;;;;;15.37;12.53;;;11.60;58.10;;;;;;5091575;28;20476;-71
2022/03/12 18:23:21;;;;;;;14.33;12.93;;;11.50;57.70;;;;;;5091340;28;20990;-71
2022/03/12 18:25:49;;;;;;;16.63;14.10;;;11.40;57.90;;;;;;5077594;28;20460;-71
2022/03/12 18:28:16;;;;;;;16.67;13.20;;;11.30;57.90;;;;;;5077613;28;20823;-71
2022/03/12 18:30:43;;;;;;;17.40;13.03;;;11.30;57.80;;;;;;5078521;28;20540;-70
2022/03/12 18:33:10;;;;;;;15.33;13.77;;;11.30;58.20;;;;;;5078085;28;20512;-71
2022/03/12 18:35:37;;;;;;;16.00;13.53;;;11.20;58.00;;;;;;5077763;28;20867;-70
2022/03/12 18:38:04;;;;;;;14.47;11.63;;;11.10;58.10;;;;;;5077640;28;20461;-71
2022/03/12 18:40:33;;;;;;;14.17;12.73;;;11.20;58.20;;;;;;5077200;28;20547;-71
2022/03/12 18:43:00;;;;;;;13.47;12.13;;;11.00;58.20;;;;;;5079026;28;20530;-70
2022/03/12 18:45:28;;;;;;;14.70;12.60;;;11.00;58.50;;;;;;5082282;28;20450;-71
2022/03/12 18:47:57;;;;;;;15.53;12.37;;;10.90;58.60;;;;;;5085229;28;20509;-71
2022/03/12 18:50:24;;;;;;;16.17;12.57;;;10.90;58.60;;;;;;5091647;28;20495;-70
2022/03/12 18:52:51;;;;;;;13.40;12.00;;;10.80;58.80;;;;;;5082936;28;20478;-70
2022/03/12 18:55:20;;;;;;;13.80;12.30;;;10.70;58.80;;;;;;5079997;28;20976;-70
2022/03/12 18:57:49;;;;;;;13.70;11.87;;;10.70;59.10;;;;;;5080446;28;20485;-70
2022/03/12 19:00:16;;;;;;;14.57;13.07;;;10.70;58.90;;;;;;5079498;28;20791;-70
2022/03/12 19:02:43;;;;;;;15.03;12.60;;;10.70;59.10;;;;;;5079293;28;20477;-70
2022/03/12 19:05:12;;;;;;;14.93;13.40;;;10.60;59.00;;;;;;5079306;28;20455;-70
2022/03/12 19:07:39;;;;;;;14.83;13.27;;;10.60;59.30;;;;;;5089861;28;20465;-70
2022/03/12 19:10:07;;;;;;;15.90;13.60;;;10.50;59.30;;;;;;5095982;28;20482;-71
2022/03/12 19:12:34;;;;;;;14.60;13.20;;;10.50;59.40;;;;;;5078610;28;20486;-71
2022/03/12 19:15:03;;;;;;;17.83;13.67;;;10.40;59.40;;;;;;5077738;28;20458;-71
2022/03/12 19:17:30;;;;;;;14.50;13.00;;;10.40;59.60;;;;;;5077461;28;20450;-70
2022/03/12 19:19:58;;;;;;;17.33;12.63;;;10.30;59.90;;;;;;5077888;28;20455;-71